createdAt,value
2022-07-27T00:01:14.330Z,67.70
2022-07-27T00:03:42.325Z,67.60
2022-07-27T00:06:09.575Z,67.60
2022-07-27T00:08:37.199Z,67.60
2022-07-27T00:11:05.402Z,67.70
2022-07-27T00:13:32.975Z,67.70
2022-07-27T00:16:00.888Z,67.80
2022-07-27T00:18:28.778Z,67.80
2022-07-27T00:20:56.442Z,67.60
2022-07-27T00:23:23.825Z,67.30
2022-07-27T00:25:51.843Z,67.50
2022-07-27T00:28:20.761Z,67.60
2022-07-27T00:30:48.352Z,68.00
2022-07-27T00:33:17.437Z,67.90
2022-07-27T00:35:45.944Z,67.90
2022-07-27T00:38:14.413Z,67.90
2022-07-27T00:40:41.707Z,67.60
2022-07-27T00:43:08.912Z,67.90
2022-07-27T00:45:36.132Z,67.80
2022-07-27T00:48:03.364Z,67.80
2022-07-27T00:50:30.608Z,67.80
2022-07-27T00:52:58.091Z,67.90
2022-07-27T00:55:25.740Z,68.00
2022-07-27T00:57:59.505Z,67.90
2022-07-27T01:00:30.686Z,68.00
2022-07-27T01:02:58.838Z,67.90
2022-07-27T01:05:36.399Z,68.00
2022-07-27T01:08:08.549Z,68.10
2022-07-27T01:10:46.016Z,68.30
2022-07-27T01:13:17.473Z,68.20
2022-07-27T01:15:45.581Z,68.10
2022-07-27T01:18:29.371Z,68.30
2022-07-27T01:20:57.862Z,68.30
2022-07-27T01:23:26.369Z,68.30
2022-07-27T01:25:54.459Z,68.30
2022-07-27T01:28:21.808Z,68.30
2022-07-27T01:30:49.711Z,68.40
2022-07-27T01:33:17.209Z,68.40
2022-07-27T01:35:45.189Z,68.40
2022-07-27T01:38:13.295Z,68.50
2022-07-27T01:40:41.403Z,68.40
2022-07-27T01:43:09.292Z,68.40
2022-07-27T01:45:36.844Z,68.60
2022-07-27T01:48:05.395Z,68.60
2022-07-27T01:50:33.009Z,68.70
2022-07-27T01:53:00.581Z,68.60
2022-07-27T01:55:31.068Z,68.80
2022-07-27T01:58:07.596Z,68.80
2022-07-27T02:00:35.811Z,68.90
2022-07-27T02:03:04.775Z,69.00
2022-07-27T02:05:32.447Z,68.80
2022-07-27T02:07:59.815Z,69.00
2022-07-27T02:10:27.174Z,69.00
2022-07-27T02:12:54.689Z,69.20
2022-07-27T02:15:25.518Z,69.00
2022-07-27T02:17:54.514Z,69.10
2022-07-27T02:20:25.834Z,69.00
2022-07-27T02:22:53.177Z,69.10
2022-07-27T02:25:20.998Z,69.20
2022-07-27T02:27:50.019Z,69.30
2022-07-27T02:30:19.898Z,69.40
2022-07-27T02:32:47.362Z,69.40
2022-07-27T02:35:19.145Z,69.40
2022-07-27T02:37:48.725Z,69.50
2022-07-27T02:40:17.597Z,69.60
2022-07-27T02:42:45.803Z,69.60
2022-07-27T02:45:14.921Z,69.60
2022-07-27T02:47:42.928Z,69.60
2022-07-27T02:50:10.830Z,69.60
2022-07-27T02:52:38.741Z,69.70
2022-07-27T02:55:07.067Z,69.80
2022-07-27T02:57:36.113Z,69.90
2022-07-27T03:00:06.284Z,69.80
2022-07-27T03:02:33.974Z,69.70
2022-07-27T03:05:01.429Z,69.80
2022-07-27T03:07:29.802Z,70.00
2022-07-27T03:09:59.217Z,70.00
2022-07-27T03:12:26.437Z,70.00
2022-07-27T03:14:53.851Z,69.90
2022-07-27T03:17:21.145Z,70.00
2022-07-27T03:19:50.031Z,70.20
2022-07-27T03:22:17.541Z,70.10
2022-07-27T03:24:45.032Z,70.10
2022-07-27T03:27:13.583Z,70.30
2022-07-27T03:29:44.886Z,70.10
2022-07-27T03:32:12.349Z,70.40
2022-07-27T03:34:39.725Z,70.30
2022-07-27T03:37:07.135Z,70.30
2022-07-27T03:39:34.627Z,70.60
2022-07-27T03:42:02.216Z,70.40
2022-07-27T03:44:29.484Z,70.60
2022-07-27T03:46:56.816Z,70.60
2022-07-27T03:49:24.436Z,70.60
2022-07-27T03:51:52.060Z,70.70
2022-07-27T03:54:19.269Z,70.60
2022-07-27T03:56:46.564Z,70.80
2022-07-27T03:59:14.727Z,70.80
2022-07-27T04:01:42.527Z,70.70
2022-07-27T04:04:09.766Z,70.60
2022-07-27T04:06:36.838Z,70.70
2022-07-27T04:09:08.655Z,70.70
2022-07-27T04:11:37.790Z,70.90
2022-07-27T04:14:12.930Z,70.80
2022-07-27T04:16:40.521Z,70.80
2022-07-27T04:19:07.818Z,70.80
2022-07-27T04:21:35.468Z,70.90
2022-07-27T04:24:03.128Z,70.90
2022-07-27T04:26:30.251Z,71.00
2022-07-27T04:28:58.655Z,71.10
2022-07-27T04:31:25.851Z,71.10
2022-07-27T04:33:52.982Z,70.90
2022-07-27T04:36:20.067Z,71.00
2022-07-27T04:38:47.483Z,71.10
2022-07-27T04:41:15.262Z,71.30
2022-07-27T04:43:42.410Z,71.20
2022-07-27T04:46:14.962Z,71.20
2022-07-27T04:48:49.393Z,71.20
2022-07-27T04:51:18.332Z,71.30
2022-07-27T04:53:52.367Z,71.20
2022-07-27T04:56:25.466Z,71.20
2022-07-27T04:58:52.669Z,71.30
2022-07-27T05:01:19.909Z,71.30
2022-07-27T05:03:47.212Z,71.30
2022-07-27T05:06:14.445Z,71.30
2022-07-27T05:08:42.642Z,71.20
2022-07-27T05:11:09.938Z,71.20
2022-07-27T05:13:40.583Z,71.20
2022-07-27T05:16:11.732Z,71.20
2022-07-27T05:18:39.765Z,71.60
2022-07-27T05:21:08.399Z,71.30
2022-07-27T05:23:36.071Z,71.20
2022-07-27T05:26:03.365Z,71.20
2022-07-27T05:28:30.607Z,71.20
2022-07-27T05:30:57.827Z,71.30
2022-07-27T05:33:25.529Z,71.20
2022-07-27T05:35:52.792Z,71.30
2022-07-27T05:38:19.934Z,71.50
2022-07-27T05:40:47.527Z,71.40
2022-07-27T05:43:15.240Z,71.30
2022-07-27T05:45:42.443Z,71.30
2022-07-27T05:48:09.591Z,71.20
2022-07-27T05:50:37.196Z,71.30
2022-07-27T05:53:04.431Z,71.40
2022-07-27T05:55:31.534Z,71.30
2022-07-27T05:57:58.595Z,71.20
2022-07-27T06:00:25.770Z,71.20
2022-07-27T06:02:52.905Z,71.30
2022-07-27T06:05:20.120Z,71.20
2022-07-27T06:07:59.107Z,71.20
2022-07-27T06:10:32.479Z,71.20
2022-07-27T06:13:01.154Z,71.30
2022-07-27T06:15:28.274Z,71.40
2022-07-27T06:17:55.543Z,71.50
2022-07-27T06:20:24.015Z,71.50
2022-07-27T06:22:57.363Z,71.50
2022-07-27T06:25:34.428Z,71.50
2022-07-27T06:28:06.772Z,71.50
2022-07-27T06:30:33.972Z,71.50
2022-07-27T06:33:06.010Z,71.70
2022-07-27T06:35:34.131Z,71.70
2022-07-27T06:38:02.364Z,71.70
2022-07-27T06:40:30.105Z,71.60
2022-07-27T06:42:58.400Z,71.70
2022-07-27T06:45:27.211Z,71.80
2022-07-27T06:47:54.825Z,71.80
2022-07-27T06:50:22.470Z,71.80
2022-07-27T06:52:49.757Z,71.80
2022-07-27T06:55:16.933Z,71.70
2022-07-27T06:57:44.083Z,71.40
2022-07-27T07:00:11.965Z,71.60
2022-07-27T07:02:50.510Z,71.40
2022-07-27T07:05:17.644Z,71.60
2022-07-27T07:07:44.885Z,71.60
2022-07-27T07:10:12.010Z,71.50
2022-07-27T07:12:39.068Z,71.60
2022-07-27T07:15:06.978Z,71.60
2022-07-27T07:17:34.540Z,71.60
2022-07-27T07:20:01.957Z,71.60
2022-07-27T07:22:29.187Z,71.60
2022-07-27T07:25:02.245Z,71.60
2022-07-27T07:27:29.804Z,71.60
2022-07-27T07:29:56.998Z,71.50
2022-07-27T07:32:27.729Z,71.60
2022-07-27T07:34:58.667Z,71.40
2022-07-27T07:37:33.544Z,71.30
2022-07-27T07:40:18.916Z,71.80
2022-07-27T07:42:51.415Z,71.70
2022-07-27T07:45:19.631Z,71.30
2022-07-27T07:47:46.884Z,71.10
2022-07-27T07:50:14.208Z,70.90
2022-07-27T07:52:41.401Z,70.90
2022-07-27T07:55:09.253Z,70.00
2022-07-27T07:57:36.449Z,68.80
2022-07-27T08:00:06.560Z,67.90
2022-07-27T08:02:45.546Z,68.30
2022-07-27T08:05:14.150Z,67.80
2022-07-27T08:07:42.289Z,67.40
2022-07-27T08:10:11.379Z,65.90
2022-07-27T08:12:40.478Z,65.20
2022-07-27T08:15:08.751Z,64.50
2022-07-27T08:17:36.015Z,64.10
2022-07-27T08:20:06.783Z,63.60
2022-07-27T08:22:34.219Z,64.00
2022-07-27T08:25:02.311Z,62.20
2022-07-27T08:27:29.883Z,62.10
2022-07-27T08:30:09.573Z,61.50
2022-07-27T08:32:58.538Z,61.50
2022-07-27T08:35:26.703Z,63.00
2022-07-27T08:37:54.554Z,62.70
2022-07-27T08:43:10.125Z,62.60
2022-07-27T08:45:37.811Z,62.50
2022-07-27T08:48:06.020Z,61.00
2022-07-27T08:50:35.475Z,60.10
2022-07-27T08:53:03.912Z,59.80
2022-07-27T08:55:39.886Z,59.90
2022-07-27T08:58:07.876Z,59.50
2022-07-27T09:00:38.027Z,59.70
2022-07-27T09:03:05.184Z,58.60
2022-07-27T09:05:37.165Z,58.70
2022-07-27T09:08:24.694Z,58.20
2022-07-27T09:10:56.772Z,57.80
2022-07-27T09:13:32.305Z,59.00
2022-07-27T09:16:23.503Z,58.50
2022-07-27T09:18:59.791Z,58.50
2022-07-27T09:21:27.154Z,59.00
2022-07-27T09:24:13.424Z,59.40
2022-07-27T09:27:02.744Z,59.70
2022-07-27T09:29:35.316Z,59.90
2022-07-27T09:32:17.487Z,60.00
2022-07-27T09:34:45.667Z,59.90
2022-07-27T09:37:24.050Z,60.00
2022-07-27T09:39:51.214Z,59.80
2022-07-27T09:42:59.232Z,60.10
2022-07-27T09:45:34.545Z,60.40
2022-07-27T09:48:09.136Z,61.40
2022-07-27T09:50:38.174Z,59.90
2022-07-27T09:53:41.461Z,59.90
2022-07-27T09:56:10.982Z,59.60
2022-07-27T09:58:46.420Z,59.90
2022-07-27T10:01:24.339Z,59.90
2022-07-27T10:03:54.734Z,59.90
2022-07-27T10:06:22.802Z,59.90
2022-07-27T10:08:53.903Z,59.70
2022-07-27T10:11:22.421Z,59.70
2022-07-27T10:13:51.381Z,59.60
2022-07-27T10:16:25.125Z,59.50
2022-07-27T10:19:15.655Z,59.50
2022-07-27T10:21:45.756Z,59.30
2022-07-27T10:24:27.037Z,59.80
2022-07-27T10:26:54.658Z,61.00
2022-07-27T10:29:23.436Z,60.40
2022-07-27T10:32:01.159Z,60.70
2022-07-27T10:34:40.177Z,61.10
2022-07-27T10:37:16.584Z,61.10
2022-07-27T10:39:51.801Z,61.20
2022-07-27T10:42:31.200Z,61.40
2022-07-27T10:44:59.943Z,61.50
2022-07-27T10:47:39.896Z,61.40
2022-07-27T10:50:16.005Z,61.10
2022-07-27T10:53:11.006Z,61.10
2022-07-27T10:55:38.777Z,61.10
2022-07-27T10:58:15.033Z,61.10
2022-07-27T11:00:54.626Z,61.00
2022-07-27T11:03:25.233Z,61.10
2022-07-27T11:06:32.563Z,61.10
2022-07-27T11:11:51.388Z,61.00
2022-07-27T11:14:19.218Z,60.80
2022-07-27T11:17:32.169Z,60.50
2022-07-27T11:19:57.445Z,60.00
2022-07-27T11:25:19.745Z,59.60
2022-07-27T11:27:50.870Z,59.30
2022-07-27T11:30:25.997Z,58.90
2022-07-27T11:32:53.739Z,58.70
2022-07-27T11:35:21.192Z,58.50
2022-07-27T11:38:03.878Z,58.30
2022-07-27T11:40:56.957Z,58.00
2022-07-27T11:43:42.067Z,58.00
2022-07-27T11:46:33.948Z,58.20
2022-07-27T11:49:17.569Z,57.50
2022-07-27T11:51:47.690Z,58.00
2022-07-27T11:54:27.871Z,58.00
2022-07-27T11:56:59.079Z,56.90
2022-07-27T11:59:37.556Z,57.10
2022-07-27T12:02:16.184Z,55.80
2022-07-27T12:04:45.696Z,56.00
2022-07-27T12:07:23.809Z,55.60
2022-07-27T12:09:54.642Z,54.00
2022-07-27T12:12:28.659Z,54.30
2022-07-27T12:14:57.576Z,53.40
2022-07-27T12:17:31.763Z,53.10
2022-07-27T12:20:07.610Z,52.50
2022-07-27T12:22:37.901Z,51.70
2022-07-27T12:25:29.674Z,51.90
2022-07-27T12:28:07.017Z,51.40
2022-07-27T12:30:49.040Z,52.10
2022-07-27T12:33:25.553Z,52.30
2022-07-27T12:35:52.699Z,52.40
2022-07-27T12:38:20.078Z,52.80
2022-07-27T12:41:00.181Z,52.80
2022-07-27T12:43:28.088Z,53.00
2022-07-27T12:45:55.801Z,53.20
2022-07-27T12:48:28.792Z,53.20
2022-07-27T12:51:02.475Z,53.60
2022-07-27T12:53:31.352Z,53.90
2022-07-27T12:56:00.756Z,54.30
2022-07-27T12:58:28.121Z,55.10
2022-07-27T13:00:55.518Z,55.70
2022-07-27T13:03:23.545Z,56.20
2022-07-27T13:05:50.684Z,56.60
2022-07-27T13:08:17.835Z,57.00
2022-07-27T13:10:45.212Z,57.30
2022-07-27T13:13:12.597Z,57.50
2022-07-27T13:15:39.921Z,57.90
2022-07-27T13:18:08.594Z,58.30
2022-07-27T13:20:36.775Z,58.30
2022-07-27T13:23:08.520Z,58.10
2022-07-27T13:25:41.065Z,58.00
2022-07-27T13:28:10.428Z,57.90
2022-07-27T13:30:37.532Z,58.10
2022-07-27T13:33:04.651Z,58.10
2022-07-27T13:35:31.682Z,58.20
2022-07-27T13:37:59.008Z,58.30
2022-07-27T13:40:26.110Z,58.40
2022-07-27T13:42:53.179Z,58.60
2022-07-27T13:45:20.279Z,58.60
2022-07-27T13:47:47.294Z,57.10
2022-07-27T13:50:19.325Z,55.70
2022-07-27T13:52:50.347Z,55.10
2022-07-27T13:55:18.188Z,54.80
2022-07-27T13:57:46.822Z,55.00
2022-07-27T14:00:16.114Z,54.90
2022-07-27T14:02:43.921Z,54.80
2022-07-27T14:05:14.316Z,55.00
2022-07-27T14:07:43.188Z,55.10
2022-07-27T14:10:30.788Z,55.20
2022-07-27T14:13:08.262Z,55.20
2022-07-27T14:15:50.318Z,55.60
2022-07-27T14:18:26.597Z,56.00
2022-07-27T14:20:58.618Z,56.80
2022-07-27T14:23:27.072Z,57.50
2022-07-27T14:25:55.503Z,58.50
2022-07-27T14:28:23.691Z,59.90
2022-07-27T14:30:51.865Z,60.80
2022-07-27T14:33:18.975Z,61.90
2022-07-27T14:35:47.203Z,62.30
2022-07-27T14:38:24.824Z,62.60
2022-07-27T14:40:58.036Z,63.10
2022-07-27T14:43:25.042Z,63.60
2022-07-27T14:45:52.201Z,64.30
2022-07-27T14:48:28.488Z,64.60
2022-07-27T14:51:01.095Z,64.90
2022-07-27T14:53:28.288Z,65.20
2022-07-27T14:55:55.402Z,65.40
2022-07-27T14:58:23.049Z,65.70
2022-07-27T15:00:50.261Z,65.90
2022-07-27T15:03:17.740Z,66.10
2022-07-27T15:05:49.223Z,66.20
2022-07-27T15:08:20.142Z,66.40
2022-07-27T15:10:48.597Z,66.50
2022-07-27T15:13:16.683Z,66.60
2022-07-27T15:15:44.552Z,66.60
2022-07-27T15:18:11.653Z,66.50
2022-07-27T15:20:38.725Z,66.20
2022-07-27T15:23:06.654Z,66.20
2022-07-27T15:25:34.506Z,66.10
2022-07-27T15:28:01.509Z,66.00
2022-07-27T15:30:28.731Z,65.80
2022-07-27T15:32:55.710Z,65.80
2022-07-27T15:35:22.887Z,65.60
2022-07-27T15:37:53.933Z,65.70
2022-07-27T15:40:37.997Z,65.70
2022-07-27T15:43:07.087Z,65.70
2022-07-27T15:45:38.685Z,65.80
2022-07-27T15:48:08.591Z,65.80
2022-07-27T15:50:37.477Z,65.50
2022-07-27T15:53:06.123Z,65.50
2022-07-27T15:55:34.014Z,65.60
2022-07-27T15:58:02.113Z,65.50
2022-07-27T16:00:29.667Z,65.50
2022-07-27T16:02:57.085Z,65.60
2022-07-27T16:05:24.486Z,65.50
2022-07-27T16:07:51.505Z,65.60
2022-07-27T16:10:18.560Z,65.60
2022-07-27T16:12:45.849Z,65.50
2022-07-27T16:15:13.126Z,65.50
2022-07-27T16:17:40.634Z,65.60
2022-07-27T16:20:08.347Z,65.70
2022-07-27T16:22:37.971Z,65.90
2022-07-27T16:25:05.727Z,65.80
2022-07-27T16:27:32.866Z,66.10
2022-07-27T16:30:00.073Z,66.10
2022-07-27T16:32:27.330Z,65.70
2022-07-27T16:34:54.415Z,65.70
2022-07-27T16:37:22.709Z,65.50
2022-07-27T16:39:49.839Z,65.30
2022-07-27T16:42:20.140Z,65.10
2022-07-27T16:44:47.444Z,65.30
2022-07-27T16:47:14.654Z,65.20
2022-07-27T16:49:42.000Z,64.40
2022-07-27T16:52:09.594Z,63.50
2022-07-27T16:54:39.597Z,63.40
2022-07-27T16:57:08.319Z,63.50
2022-07-27T16:59:39.078Z,63.60
2022-07-27T17:02:06.392Z,63.60
2022-07-27T17:04:34.153Z,64.90
2022-07-27T17:07:01.175Z,65.70
2022-07-27T17:09:28.252Z,66.10
2022-07-27T17:11:55.242Z,66.30
2022-07-27T17:14:22.663Z,66.40
2022-07-27T17:16:52.275Z,66.10
2022-07-27T17:19:20.212Z,65.70
2022-07-27T17:21:48.165Z,65.90
2022-07-27T17:24:15.466Z,65.90
2022-07-27T17:26:42.481Z,65.90
2022-07-27T17:29:09.845Z,65.70
2022-07-27T17:31:37.326Z,65.70
2022-07-27T17:34:04.715Z,65.40
2022-07-27T17:36:31.956Z,65.40
2022-07-27T17:39:01.766Z,65.10
2022-07-27T17:41:28.860Z,65.00
2022-07-27T17:43:56.722Z,65.20
2022-07-27T17:46:24.615Z,65.00
2022-07-27T17:48:54.373Z,65.00
2022-07-27T17:51:23.275Z,65.10
2022-07-27T17:53:50.582Z,64.70
2022-07-27T17:56:17.682Z,65.10
2022-07-27T17:58:45.682Z,65.10
2022-07-27T18:01:12.861Z,64.50
2022-07-27T18:03:41.194Z,64.50
2022-07-27T18:06:08.283Z,64.60
2022-07-27T18:08:36.439Z,64.20
2022-07-27T18:11:03.741Z,64.10
2022-07-27T18:13:39.168Z,63.80
2022-07-27T18:16:12.135Z,63.90
2022-07-27T18:18:40.711Z,64.30
2022-07-27T18:21:08.994Z,64.20
2022-07-27T18:23:36.563Z,64.10
2022-07-27T18:26:04.398Z,64.30
2022-07-27T18:28:39.150Z,64.80
2022-07-27T18:31:07.158Z,65.20
2022-07-27T18:33:36.536Z,65.20
2022-07-27T18:36:05.273Z,65.20
2022-07-27T18:38:32.614Z,65.50
2022-07-27T18:41:00.121Z,66.20
2022-07-27T18:43:27.209Z,66.80
2022-07-27T18:45:54.264Z,67.30
2022-07-27T18:48:21.553Z,67.90
2022-07-27T18:50:48.790Z,68.10
2022-07-27T18:53:15.898Z,68.90
2022-07-27T18:55:42.985Z,68.90
2022-07-27T18:58:10.195Z,68.70
2022-07-27T19:00:37.494Z,67.70
2022-07-27T19:03:04.752Z,67.30
2022-07-27T19:05:41.429Z,67.00
2022-07-27T19:08:13.096Z,66.90
2022-07-27T19:10:43.490Z,66.70
2022-07-27T19:13:11.519Z,66.30
2022-07-27T19:15:39.059Z,66.30
2022-07-27T19:18:07.103Z,66.30
2022-07-27T19:20:36.121Z,65.90
2022-07-27T19:23:03.804Z,65.70
2022-07-27T19:25:30.957Z,65.60
2022-07-27T19:27:58.054Z,65.40
2022-07-27T19:30:25.602Z,65.30
2022-07-27T19:32:52.617Z,65.30
2022-07-27T19:35:20.074Z,65.20
2022-07-27T19:37:47.196Z,65.30
2022-07-27T19:40:42.991Z,65.20
2022-07-27T19:43:04.186Z,64.90
2022-07-27T19:45:31.646Z,65.00
2022-07-27T19:48:01.206Z,64.80
2022-07-27T19:50:28.193Z,64.70
2022-07-27T19:52:55.433Z,64.80
2022-07-27T19:55:22.601Z,64.80
2022-07-27T19:57:49.788Z,64.70
2022-07-27T20:00:16.951Z,64.70
2022-07-27T20:02:44.553Z,64.60
2022-07-27T20:05:11.768Z,64.60
2022-07-27T20:07:38.976Z,64.80
2022-07-27T20:10:06.891Z,64.60
2022-07-27T20:12:33.873Z,64.50
2022-07-27T20:15:02.239Z,64.60
2022-07-27T20:17:30.536Z,64.70
2022-07-27T20:19:57.566Z,64.90
2022-07-27T20:22:24.585Z,64.70
2022-07-27T20:24:51.631Z,64.80
2022-07-27T20:27:18.786Z,64.70
2022-07-27T20:29:45.898Z,64.70
2022-07-27T20:32:13.005Z,64.80
2022-07-27T20:34:39.973Z,64.90
2022-07-27T20:37:07.037Z,64.80
2022-07-27T20:39:34.151Z,64.80
2022-07-27T20:42:01.320Z,64.90
2022-07-27T20:44:28.401Z,64.70
2022-07-27T20:46:55.352Z,65.00
2022-07-27T20:49:23.017Z,65.00
2022-07-27T20:51:50.077Z,64.90
2022-07-27T20:54:17.156Z,64.80
2022-07-27T20:56:56.495Z,64.90
2022-07-27T20:59:24.010Z,65.00
2022-07-27T21:01:51.537Z,64.90
2022-07-27T21:04:22.090Z,65.00
2022-07-27T21:06:50.864Z,64.90
2022-07-27T21:09:18.723Z,64.70
2022-07-27T21:11:45.958Z,65.00
2022-07-27T21:14:13.142Z,65.10
2022-07-27T21:16:40.813Z,65.30
2022-07-27T21:19:08.066Z,65.20
2022-07-27T21:21:35.466Z,65.20
2022-07-27T21:24:28.496Z,65.20
2022-07-27T21:27:00.939Z,65.20
2022-07-27T21:29:33.731Z,65.40
2022-07-27T21:32:01.229Z,65.50
2022-07-27T21:34:28.777Z,65.40
2022-07-27T21:36:55.959Z,65.20
2022-07-27T21:39:25.037Z,65.30
2022-07-27T21:41:52.139Z,65.20
2022-07-27T21:44:19.187Z,65.30
2022-07-27T21:46:46.339Z,66.10
2022-07-27T21:49:13.765Z,65.50
2022-07-27T21:51:40.842Z,65.70
2022-07-27T21:54:08.072Z,65.70
2022-07-27T21:56:41.854Z,65.80
2022-07-27T21:59:10.456Z,65.60
2022-07-27T22:01:37.692Z,65.70
2022-07-27T22:04:06.312Z,65.70
2022-07-27T22:06:33.479Z,65.50
2022-07-27T22:09:01.331Z,65.80
2022-07-27T22:11:28.406Z,65.70
2022-07-27T22:13:56.636Z,65.70
2022-07-27T22:16:23.844Z,65.70
2022-07-27T22:18:51.110Z,65.70
2022-07-27T22:21:18.215Z,65.60
2022-07-27T22:23:48.690Z,66.60
2022-07-27T22:26:16.097Z,65.60
2022-07-27T22:28:44.255Z,65.90
2022-07-27T22:31:22.020Z,65.90
2022-07-27T22:33:51.027Z,65.90
2022-07-27T22:36:18.283Z,65.90
2022-07-27T22:38:45.440Z,65.90
2022-07-27T22:41:12.526Z,66.00
2022-07-27T22:43:39.722Z,66.00
2022-07-27T22:46:07.258Z,66.20
2022-07-27T22:48:34.495Z,66.10
2022-07-27T22:51:01.793Z,66.20
2022-07-27T22:53:28.843Z,66.30
2022-07-27T22:55:56.313Z,66.30
2022-07-27T22:58:23.543Z,66.20
2022-07-27T23:00:53.496Z,66.20
2022-07-27T23:03:23.386Z,66.30
2022-07-27T23:05:50.758Z,66.30
2022-07-27T23:08:17.944Z,66.30
2022-07-27T23:10:47.754Z,66.20
2022-07-27T23:13:16.139Z,66.30
2022-07-27T23:15:44.557Z,66.20
2022-07-27T23:18:12.417Z,66.30
2022-07-27T23:20:40.671Z,66.30
2022-07-27T23:23:15.814Z,66.40
2022-07-27T23:25:48.991Z,66.50
2022-07-27T23:28:17.283Z,66.50
2022-07-27T23:30:44.511Z,66.30
2022-07-27T23:33:11.724Z,66.50
2022-07-27T23:35:38.975Z,66.40
2022-07-27T23:38:06.212Z,66.50
2022-07-27T23:40:33.346Z,67.40
2022-07-27T23:43:00.490Z,66.60
2022-07-27T23:45:27.597Z,66.70
2022-07-27T23:47:54.826Z,66.90
2022-07-27T23:50:22.470Z,66.70
2022-07-27T23:52:49.733Z,66.60
2022-07-27T23:55:18.042Z,66.70
2022-07-27T23:57:45.232Z,66.80
